Loudon, New Hampshire
Current Conditions -  °F | °C
As of 10:51 PM on Friday 19 Dec 2014 (Local Time) from KCON Reporting Station
Clear Clear  
Wind Chill: 16°   Ceiling: Unl
Heat Index: 24°   Visibility: 10mi
Dew Point: 18°   Wind: 7mph
Humidity: 77%   Direction: 320°NW
Pressure: 30.14"   Gusts: NA
Location:  43.18°N, 71.56°W
Report Text: KCON 200351Z AUTO 32006KT 10SM CLR M04/M08 A3014 RMK AO2 SLP213 T10441078
Loading
Personal Weather Stations






























Interactive Weather Map New forecast layout! Learn more

10-Day Weather Forecast

Advertisements
Track Severe Weather on mobile